Time;durP1;ratioP1;P1;durP2;ratioP2;P2;SDS_P1;SDS_P2;PMS_P1;PMS_P2;Temp;Humidity;BMP_temperature;BMP_pressure;BME280_temperature;BME280_humidity;BME280_pressure;Samples;Min_cycle;Max_cycle;Signal;HPM_P1;HPM_P2
2022/09/29 00:02:00;;;;;;;3.63;3.10;;;9.30;99.90;;;;;;5019612;28;20194;-60
2022/09/29 00:04:25;;;;;;;3.55;3.25;;;9.10;99.90;;;;;;5021350;28;20188;-61
2022/09/29 00:06:51;;;;;;;3.50;3.00;;;9.20;99.90;;;;;;5020977;28;20227;-62
2022/09/29 00:09:17;;;;;;;4.00;3.30;;;9.10;99.90;;;;;;5019145;28;20187;-61
2022/09/29 00:11:43;;;;;;;3.00;2.80;;;9.50;99.90;;;;;;5019649;28;20221;-61
2022/09/29 00:14:08;;;;;;;3.40;3.10;;;9.20;99.90;;;;;;5013783;28;20210;-62
2022/09/29 00:16:34;;;;;;;4.03;2.87;;;9.20;99.90;;;;;;5027075;28;20211;-60
2022/09/29 00:19:00;;;;;;;3.63;3.33;;;9.40;99.90;;;;;;5022779;28;20567;-63
2022/09/29 00:21:26;;;;;;;4.15;3.53;;;9.40;99.90;;;;;;5020661;28;20265;-62
2022/09/29 00:23:51;;;;;;;4.80;3.00;;;9.50;99.90;;;;;;5017478;28;20727;-64
2022/09/29 00:26:22;;;;;;;3.10;2.70;;;9.40;99.90;;;;;;5015146;28;20206;-60
2022/09/29 00:28:54;;;;;;;3.70;3.00;;;9.60;99.90;;;;;;5015105;28;20183;-63
2022/09/29 00:31:21;;;;;;;5.78;3.35;;;9.70;99.90;;;;;;5020025;28;20175;-63
2022/09/29 00:33:46;;;;;;;4.50;3.15;;;9.60;99.90;;;;;;5024913;28;20273;-61
2022/09/29 00:36:14;;;;;;;3.67;3.37;;;9.50;99.90;;;;;;5022838;28;20298;-62
2022/09/29 00:38:42;;;;;;;5.57;3.90;;;9.50;99.90;;;;;;5017858;28;20239;-60
2022/09/29 00:41:16;;;;;;;4.00;3.70;;;9.70;99.90;;;;;;5017291;28;20187;-62
2022/09/29 00:43:58;;;;;;;3.97;3.38;;;9.50;99.90;;;;;;5017593;28;20962;-61
2022/09/29 00:46:28;;;;;;;4.03;2.95;;;9.60;99.90;;;;;;5015832;28;20251;-63
2022/09/29 00:48:58;;;;;;;4.20;3.65;;;9.60;99.90;;;;;;5016048;28;20187;-61
2022/09/29 00:51:26;;;;;;;3.92;3.35;;;9.70;99.90;;;;;;5012566;28;20210;-60
2022/09/29 00:53:52;;;;;;;3.40;3.10;;;9.50;99.90;;;;;;5026805;28;20587;-60
2022/09/29 00:56:19;;;;;;;6.15;3.58;;;9.70;99.90;;;;;;5014586;28;20207;-62
2022/09/29 00:59:00;;;;;;;3.75;3.45;;;9.60;99.90;;;;;;5018435;28;20171;-61
2022/09/29 01:01:29;;;;;;;3.20;2.90;;;9.60;99.90;;;;;;5027563;28;20270;-62
2022/09/29 01:04:02;;;;;;;6.40;3.28;;;9.50;99.90;;;;;;5017220;28;20184;-60
2022/09/29 01:06:53;;;;;;;7.63;3.90;;;9.50;99.90;;;;;;5020789;28;20214;-61
2022/09/29 01:09:24;;;;;;;3.55;3.10;;;9.50;99.90;;;;;;5015745;28;20182;-62
2022/09/29 01:11:53;;;;;;;3.50;3.20;;;9.60;99.90;;;;;;5018566;28;20190;-62
2022/09/29 01:14:20;;;;;;;4.18;3.30;;;9.80;99.90;;;;;;5014633;28;20206;-62
2022/09/29 01:16:46;;;;;;;5.13;2.75;;;9.60;99.90;;;;;;5032290;28;20706;-61
2022/09/29 01:19:58;;;;;;;4.80;3.10;;;9.80;99.90;;;;;;5023869;28;20183;-59
2022/09/29 01:23:17;;;;;;;4.65;3.20;;;9.70;99.90;;;;;;5018768;28;20202;-62
2022/09/29 01:26:07;;;;;;;4.18;2.88;;;9.60;99.90;;;;;;5020259;28;20725;-63
2022/09/29 01:28:47;;;;;;;3.75;3.00;;;9.90;99.90;;;;;;5019458;28;20190;-61
2022/09/29 01:31:31;;;;;;;3.97;3.17;;;9.60;99.90;;;;;;5025522;28;20220;-61
2022/09/29 01:34:20;;;;;;;3.67;3.35;;;9.60;99.90;;;;;;5018613;28;20212;-61
2022/09/29 01:37:40;;;;;;;6.38;3.70;;;9.60;99.90;;;;;;5016146;28;20195;-61
2022/09/29 01:40:17;;;;;;;3.67;3.38;;;9.80;99.90;;;;;;4998183;28;20202;-63
2022/09/29 01:43:13;;;;;;;4.75;3.67;;;9.70;99.90;;;;;;5029146;28;20190;-62
2022/09/29 01:45:45;;;;;;;3.28;2.97;;;9.80;99.90;;;;;;5015918;28;20226;-63
2022/09/29 01:48:17;;;;;;;4.10;3.70;;;9.90;99.90;;;;;;5016390;28;20568;-63
2022/09/29 01:50:47;;;;;;;3.42;3.10;;;9.70;99.90;;;;;;5019700;28;20196;-64
2022/09/29 01:53:27;;;;;;;3.97;3.15;;;9.80;99.90;;;;;;5022875;28;20218;-62
2022/09/29 01:55:59;;;;;;;3.55;3.25;;;9.80;99.90;;;;;;5025499;28;20234;-61
2022/09/29 01:58:34;;;;;;;3.65;2.92;;;9.90;99.90;;;;;;5019170;28;20675;-61
2022/09/29 02:01:05;;;;;;;3.13;2.83;;;9.70;99.90;;;;;;5026214;28;20186;-61
2022/09/29 02:03:36;;;;;;;3.20;2.80;;;9.90;99.90;;;;;;5020866;28;20176;-61
2022/09/29 02:06:07;;;;;;;3.10;2.90;;;9.80;99.90;;;;;;5025744;28;20211;-61
2022/09/29 02:08:54;;;;;;;4.05;3.15;;;9.90;99.90;;;;;;5025267;28;20198;-61
2022/09/29 02:11:21;;;;;;;4.80;3.25;;;9.90;99.90;;;;;;5019945;28;20796;-61
2022/09/29 02:14:14;;;;;;;3.42;2.65;;;10.10;99.90;;;;;;5024539;28;20202;-63
2022/09/29 02:16:45;;;;;;;4.40;3.25;;;10.00;99.90;;;;;;5019161;28;20199;-64
2022/09/29 02:19:18;;;;;;;2.83;2.63;;;10.00;99.90;;;;;;5028057;28;20559;-63
2022/09/29 02:21:45;;;;;;;3.20;2.95;;;10.00;99.90;;;;;;5022130;28;20195;-63
2022/09/29 02:24:13;;;;;;;3.50;3.20;;;9.90;99.90;;;;;;5015800;28;20183;-63
2022/09/29 02:26:40;;;;;;;3.70;3.40;;;10.10;99.90;;;;;;5021468;28;20209;-63
2022/09/29 02:29:08;;;;;;;3.35;3.05;;;10.10;99.90;;;;;;5020114;28;20176;-63
2022/09/29 02:31:36;;;;;;;2.80;2.60;;;9.80;99.90;;;;;;5022806;28;20203;-62
2022/09/29 02:34:03;;;;;;;3.50;2.90;;;10.00;99.90;;;;;;5029162;28;20317;-62
2022/09/29 02:36:50;;;;;;;3.35;3.05;;;10.00;99.90;;;;;;5021939;28;20207;-62
2022/09/29 02:39:30;;;;;;;3.83;2.83;;;9.90;99.90;;;;;;5020300;28;20250;-61
2022/09/29 02:42:11;;;;;;;3.50;3.20;;;10.20;99.90;;;;;;5019078;28;20651;-62
2022/09/29 02:44:58;;;;;;;3.45;3.15;;;10.20;99.90;;;;;;5021024;28;20206;-62
2022/09/29 02:47:32;;;;;;;3.30;3.00;;;9.90;99.90;;;;;;5024126;28;20208;-61
2022/09/29 02:50:30;;;;;;;3.67;3.38;;;10.30;99.90;;;;;;5020073;28;20187;-61
2022/09/29 02:53:31;;;;;;;3.03;2.60;;;10.00;99.90;;;;;;5026626;28;20250;-62
2022/09/29 02:56:04;;;;;;;5.05;3.70;;;10.00;99.90;;;;;;5017445;28;20244;-61
2022/09/29 02:58:45;;;;;;;4.30;3.08;;;10.20;99.90;;;;;;5020188;28;20807;-61
2022/09/29 03:01:13;;;;;;;5.57;2.80;;;10.10;99.90;;;;;;5025000;28;20188;-62
2022/09/29 03:03:39;;;;;;;3.35;3.05;;;9.80;99.90;;;;;;5025028;28;20180;-63
2022/09/29 03:06:06;;;;;;;3.37;3.07;;;10.10;99.90;;;;;;5013390;28;20207;-61
2022/09/29 03:08:32;;;;;;;5.50;3.15;;;10.30;99.90;;;;;;5023437;28;20188;-62
2022/09/29 03:10:58;;;;;;;3.20;2.90;;;10.20;99.90;;;;;;5022194;28;20186;-62
2022/09/29 03:13:24;;;;;;;3.40;3.10;;;10.10;99.90;;;;;;5029308;28;20710;-64
2022/09/29 03:15:49;;;;;;;4.63;3.10;;;10.00;99.90;;;;;;5019574;28;20226;-62
2022/09/29 03:18:15;;;;;;;3.83;3.33;;;10.20;99.90;;;;;;5017754;28;20836;-63
2022/09/29 03:20:42;;;;;;;3.40;3.10;;;10.00;99.90;;;;;;5019019;28;20183;-64
2022/09/29 03:23:08;;;;;;;3.38;2.78;;;10.70;99.90;;;;;;5017851;28;20181;-62
2022/09/29 03:25:33;;;;;;;3.03;2.80;;;10.20;99.90;;;;;;5022261;28;20250;-61
2022/09/29 03:28:00;;;;;;;4.57;3.43;;;10.20;99.90;;;;;;5025677;28;20269;-60
2022/09/29 03:30:25;;;;;;;3.10;2.85;;;10.20;99.90;;;;;;5016264;28;20215;-63
2022/09/29 03:32:51;;;;;;;3.60;3.30;;;10.30;99.90;;;;;;5022768;28;20220;-61
2022/09/29 03:35:17;;;;;;;4.33;3.10;;;10.20;99.90;;;;;;5027890;28;20223;-62
2022/09/29 03:37:43;;;;;;;4.38;3.38;;;9.90;99.90;;;;;;5015978;28;20189;-62
2022/09/29 03:40:09;;;;;;;5.90;3.40;;;9.90;99.90;;;;;;5022710;28;20242;-62
2022/09/29 03:42:34;;;;;;;3.45;3.15;;;9.80;99.90;;;;;;5021922;28;20213;-62
2022/09/29 03:45:00;;;;;;;3.23;2.70;;;9.80;99.90;;;;;;5024549;28;20814;-62
2022/09/29 03:47:26;;;;;;;3.17;2.80;;;9.80;99.90;;;;;;5020529;28;20281;-62
2022/09/29 03:49:51;;;;;;;3.50;3.10;;;9.70;99.90;;;;;;5029419;28;20189;-62
2022/09/29 03:52:17;;;;;;;3.93;3.40;;;9.80;99.90;;;;;;5028090;28;20232;-63
2022/09/29 03:54:43;;;;;;;5.85;4.90;;;9.50;99.90;;;;;;5027343;28;20315;-61
2022/09/29 03:57:09;;;;;;;3.67;3.37;;;9.60;99.90;;;;;;5019111;28;20274;-61
2022/09/29 03:59:35;;;;;;;3.83;3.53;;;9.70;99.90;;;;;;5021895;28;20186;-59
2022/09/29 04:02:01;;;;;;;6.27;3.10;;;9.70;99.90;;;;;;5029815;28;20229;-61
2022/09/29 04:04:27;;;;;;;3.97;3.33;;;9.60;99.90;;;;;;5021225;28;20471;-61
2022/09/29 04:06:53;;;;;;;4.40;3.60;;;9.60;99.90;;;;;;5016818;28;20289;-60
2022/09/29 04:09:19;;;;;;;4.20;3.40;;;9.70;99.90;;;;;;5015314;28;20282;-61
2022/09/29 04:11:44;;;;;;;3.13;2.90;;;9.50;99.90;;;;;;5016947;28;20730;-61
2022/09/29 04:14:10;;;;;;;3.90;3.60;;;9.20;99.90;;;;;;5024271;28;20209;-61
2022/09/29 04:16:36;;;;;;;3.97;3.50;;;9.50;99.90;;;;;;5022125;28;20643;-60
2022/09/29 04:19:02;;;;;;;3.20;2.90;;;9.60;99.90;;;;;;5027927;28;20200;-61
2022/09/29 04:21:28;;;;;;;4.72;3.40;;;9.50;99.90;;;;;;5018146;28;20442;-60
2022/09/29 04:23:53;;;;;;;5.60;3.67;;;9.60;99.90;;;;;;5031736;28;20612;-60
2022/09/29 04:26:22;;;;;;;3.77;3.50;;;9.30;99.90;;;;;;5022438;28;20199;-59
2022/09/29 04:28:47;;;;;;;4.97;4.47;;;9.00;99.90;;;;;;5027629;28;20215;-62
2022/09/29 04:31:14;;;;;;;4.50;3.72;;;9.00;99.90;;;;;;5030181;28;20189;-61
2022/09/29 04:33:40;;;;;;;3.23;2.93;;;9.00;99.90;;;;;;5025671;28;20187;-59
2022/09/29 04:36:06;;;;;;;7.82;4.38;;;8.90;99.90;;;;;;5025966;28;20473;-59
2022/09/29 04:38:33;;;;;;;5.05;3.63;;;8.90;99.90;;;;;;5021043;28;20735;-59
2022/09/29 04:40:59;;;;;;;3.90;3.60;;;9.00;99.90;;;;;;5017066;28;20753;-59
2022/09/29 04:43:24;;;;;;;4.30;3.90;;;9.00;99.90;;;;;;5017541;28;20218;-60
2022/09/29 04:45:50;;;;;;;3.63;3.10;;;9.10;99.90;;;;;;5020879;28;20523;-61
2022/09/29 04:48:16;;;;;;;4.75;3.50;;;8.90;99.90;;;;;;5028493;28;20212;-59
2022/09/29 04:50:42;;;;;;;4.33;2.90;;;9.10;99.90;;;;;;5030167;28;20704;-60
2022/09/29 04:53:09;;;;;;;6.35;3.42;;;8.80;99.90;;;;;;5017680;28;20198;-60
2022/09/29 04:55:37;;;;;;;5.93;3.60;;;8.90;99.90;;;;;;5019089;28;20307;-61
2022/09/29 04:58:04;;;;;;;4.03;3.63;;;8.90;99.90;;;;;;5020389;28;20182;-59
2022/09/29 05:00:30;;;;;;;4.72;3.72;;;9.20;99.90;;;;;;5017786;28;20188;-59
2022/09/29 05:02:56;;;;;;;3.53;3.25;;;9.00;99.90;;;;;;5030938;28;20191;-60
2022/09/29 05:05:22;;;;;;;3.80;3.50;;;9.00;99.90;;;;;;5023649;28;20215;-61
2022/09/29 05:07:48;;;;;;;4.30;4.00;;;9.00;99.90;;;;;;5026513;28;20499;-61
2022/09/29 05:10:14;;;;;;;4.00;3.55;;;8.90;99.90;;;;;;5024419;28;20186;-59
2022/09/29 05:12:39;;;;;;;3.60;3.30;;;8.90;99.90;;;;;;5023377;28;20182;-59
2022/09/29 05:15:06;;;;;;;4.60;3.80;;;9.30;99.90;;;;;;5016088;28;20210;-61
2022/09/29 05:17:32;;;;;;;3.78;3.47;;;9.00;99.90;;;;;;5023427;28;20193;-62
2022/09/29 05:19:57;;;;;;;3.38;3.10;;;9.00;99.90;;;;;;5030669;28;20185;-59
2022/09/29 05:22:24;;;;;;;5.73;3.33;;;9.10;99.90;;;;;;5020922;28;20183;-60
2022/09/29 05:24:51;;;;;;;4.18;3.13;;;9.00;99.90;;;;;;5024435;28;20217;-61
2022/09/29 05:27:16;;;;;;;4.30;3.90;;;8.90;99.90;;;;;;5024873;28;20193;-61
2022/09/29 05:29:42;;;;;;;6.40;4.50;;;8.80;99.90;;;;;;5014424;28;20190;-64
2022/09/29 05:32:09;;;;;;;4.07;3.60;;;9.00;99.90;;;;;;5016514;28;20427;-65
2022/09/29 05:34:34;;;;;;;4.35;3.95;;;8.70;99.90;;;;;;5023123;28;20214;-64
2022/09/29 05:37:00;;;;;;;10.33;8.23;;;8.50;99.90;;;;;;5019724;28;20186;-63
2022/09/29 05:39:26;;;;;;;5.35;4.35;;;8.90;99.90;;;;;;5016634;28;20187;-63
2022/09/29 05:41:52;;;;;;;4.63;4.23;;;9.00;99.90;;;;;;5023817;28;20233;-64
2022/09/29 05:44:18;;;;;;;6.23;4.07;;;9.10;99.90;;;;;;5030508;28;20182;-63
2022/09/29 05:46:43;;;;;;;4.87;3.77;;;9.10;99.90;;;;;;5020394;28;21120;-65
2022/09/29 05:49:09;;;;;;;6.97;5.10;;;9.10;99.90;;;;;;5025404;28;20648;-68
2022/09/29 05:51:35;;;;;;;7.07;4.23;;;9.20;99.90;;;;;;5026494;28;20182;-69
2022/09/29 05:54:01;;;;;;;4.23;3.93;;;9.10;99.90;;;;;;5025491;28;20975;-67
2022/09/29 05:56:27;;;;;;;4.23;3.80;;;9.00;99.90;;;;;;5015471;28;20448;-70
2022/09/29 05:58:53;;;;;;;7.23;4.40;;;9.20;99.90;;;;;;5013648;28;20179;-64
2022/09/29 06:01:25;;;;;;;4.67;4.27;;;9.20;99.90;;;;;;5034826;28;20399;-65
2022/09/29 06:03:57;;;;;;;5.30;4.32;;;9.20;99.90;;;;;;5018321;28;20441;-65
2022/09/29 06:06:27;;;;;;;5.30;3.88;;;9.40;99.90;;;;;;5009719;28;20272;-65
2022/09/29 06:08:54;;;;;;;6.65;4.07;;;9.20;99.90;;;;;;5015657;28;20290;-65
2022/09/29 06:11:21;;;;;;;5.88;4.30;;;9.30;99.90;;;;;;5021883;28;20201;-65
2022/09/29 06:13:49;;;;;;;4.68;4.22;;;9.30;99.90;;;;;;5026107;28;20222;-65
2022/09/29 06:16:16;;;;;;;7.93;4.60;;;9.30;99.90;;;;;;5037838;28;20202;-64
2022/09/29 06:18:42;;;;;;;5.05;4.55;;;9.40;99.90;;;;;;5020431;28;20216;-67
2022/09/29 06:21:34;;;;;;;5.43;4.90;;;9.30;99.90;;;;;;5028530;28;20236;-61
2022/09/29 06:23:59;;;;;;;5.63;5.13;;;9.50;99.90;;;;;;5015295;28;20187;-64
2022/09/29 06:26:27;;;;;;;4.80;4.40;;;9.40;99.90;;;;;;5021247;28;20221;-63
2022/09/29 06:28:53;;;;;;;5.32;4.82;;;9.60;99.90;;;;;;5027239;28;20938;-63
2022/09/29 06:31:22;;;;;;;5.30;4.85;;;9.70;99.90;;;;;;5028878;28;20185;-65
2022/09/29 06:33:48;;;;;;;5.05;4.50;;;9.70;99.90;;;;;;5031152;28;20186;-66
2022/09/29 06:39:29;;;;;;;5.65;4.70;;;9.80;99.90;;;;;;5027699;28;20194;-68
2022/09/29 06:41:55;;;;;;;5.47;4.95;;;9.70;99.90;;;;;;5021657;28;20663;-65
2022/09/29 06:44:25;;;;;;;7.13;4.82;;;10.00;99.90;;;;;;5025862;28;20188;-67
2022/09/29 06:46:51;;;;;;;6.78;4.80;;;9.80;99.90;;;;;;5027577;28;20202;-65
2022/09/29 06:49:18;;;;;;;9.70;4.60;;;9.70;99.90;;;;;;5026867;28;20184;-64
2022/09/29 06:51:45;;;;;;;5.40;4.85;;;10.00;99.90;;;;;;5024253;28;20653;-66
2022/09/29 06:54:23;;;;;;;5.90;5.30;;;10.10;99.90;;;;;;5026055;28;20582;-67
2022/09/29 06:56:50;;;;;;;4.50;4.10;;;10.60;99.90;;;;;;5025358;28;20648;-63
2022/09/29 06:59:16;;;;;;;7.35;5.65;;;10.00;99.90;;;;;;5022285;28;20577;-63
2022/09/29 07:01:42;;;;;;;5.70;4.67;;;10.20;99.90;;;;;;5024528;28;20193;-63
2022/09/29 07:04:09;;;;;;;6.20;5.60;;;10.20;99.90;;;;;;5031828;28;20218;-62
2022/09/29 07:06:34;;;;;;;5.75;4.47;;;10.20;99.90;;;;;;5030126;28;20210;-62
2022/09/29 07:09:00;;;;;;;8.83;5.87;;;10.30;99.90;;;;;;5033435;28;20682;-62
2022/09/29 07:11:27;;;;;;;49.63;37.03;;;10.40;99.90;;;;;;5020342;28;20191;-66
2022/09/29 07:13:53;;;;;;;11.30;7.47;;;10.50;99.90;;;;;;5024081;28;20249;-64
2022/09/29 07:16:22;;;;;;;5.50;4.65;;;10.50;99.90;;;;;;5021922;28;20198;-67
2022/09/29 07:18:48;;;;;;;5.18;4.68;;;10.60;99.90;;;;;;5027400;28;20176;-63
2022/09/29 07:21:16;;;;;;;6.07;5.00;;;10.60;99.90;;;;;;5027366;28;20214;-67
2022/09/29 07:23:42;;;;;;;6.75;5.00;;;10.80;99.90;;;;;;5039360;28;20441;-67
2022/09/29 07:26:08;;;;;;;5.88;5.30;;;10.60;99.90;;;;;;5035340;28;20204;-66
2022/09/29 07:28:34;;;;;;;6.73;5.00;;;10.70;99.90;;;;;;5021729;28;20238;-66
2022/09/29 07:31:03;;;;;;;5.22;4.72;;;11.00;99.90;;;;;;5028411;28;20193;-66
2022/09/29 07:33:30;;;;;;;6.18;4.82;;;11.10;99.90;;;;;;5013902;28;20562;-66
2022/09/29 07:36:00;;;;;;;4.90;4.40;;;11.00;99.90;;;;;;5018476;28;20343;-64
2022/09/29 07:38:27;;;;;;;8.43;6.15;;;10.90;99.90;;;;;;5022808;28;20192;-64
2022/09/29 07:40:53;;;;;;;7.78;6.30;;;11.20;99.90;;;;;;5032269;28;20185;-64
2022/09/29 07:43:19;;;;;;;6.23;4.90;;;11.10;99.90;;;;;;5025699;28;20253;-71
2022/09/29 07:45:49;;;;;;;10.35;6.95;;;11.50;99.90;;;;;;5027032;28;20883;-72
2022/09/29 07:48:16;;;;;;;6.30;5.28;;;11.60;99.90;;;;;;5030050;28;20192;-73
2022/09/29 07:50:43;;;;;;;5.47;4.70;;;11.50;99.90;;;;;;5038104;28;20189;-72
2022/09/29 07:53:10;;;;;;;6.40;5.03;;;11.50;99.90;;;;;;5010058;28;20614;-73
2022/09/29 07:55:39;;;;;;;8.20;6.47;;;11.40;99.90;;;;;;5012097;28;20228;-74
2022/09/29 07:58:05;;;;;;;6.47;5.18;;;11.70;99.90;;;;;;5023621;28;20188;-72
2022/09/29 08:00:31;;;;;;;9.05;5.72;;;11.50;99.90;;;;;;5012727;28;20185;-73
2022/09/29 08:03:03;;;;;;;5.10;4.70;;;11.90;99.90;;;;;;5028241;28;20194;-73
2022/09/29 08:05:32;;;;;;;8.27;5.60;;;12.10;99.90;;;;;;5027010;28;21036;-62
2022/09/29 08:08:01;;;;;;;6.22;4.78;;;12.00;99.90;;;;;;5020551;28;20269;-61
2022/09/29 08:10:29;;;;;;;5.55;5.05;;;12.20;99.90;;;;;;5026611;28;20197;-61
2022/09/29 08:12:55;;;;;;;8.48;5.10;;;12.20;99.90;;;;;;5026055;28;20209;-67
2022/09/29 08:15:22;;;;;;;5.47;4.60;;;12.20;99.90;;;;;;5027835;28;20706;-66
2022/09/29 08:17:50;;;;;;;7.90;5.32;;;12.50;99.90;;;;;;5022336;28;20911;-68
2022/09/29 08:20:16;;;;;;;4.65;4.25;;;12.30;99.90;;;;;;5021568;28;20212;-65
2022/09/29 08:22:42;;;;;;;5.77;5.27;;;12.40;99.90;;;;;;5025808;28;20261;-67
2022/09/29 08:25:08;;;;;;;6.37;5.63;;;12.40;99.90;;;;;;5033781;28;20232;-66
2022/09/29 08:27:33;;;;;;;5.57;5.07;;;12.30;99.90;;;;;;5024140;28;20190;-66
2022/09/29 08:30:00;;;;;;;6.63;5.60;;;12.50;99.90;;;;;;5030548;28;20685;-65
2022/09/29 08:32:26;;;;;;;6.07;5.57;;;12.80;99.90;;;;;;5035070;28;20182;-65
2022/09/29 08:34:52;;;;;;;6.33;4.87;;;13.00;99.90;;;;;;5031048;28;20224;-63
2022/09/29 08:37:17;;;;;;;6.30;5.30;;;13.20;99.90;;;;;;5026101;28;20169;-65
2022/09/29 08:39:43;;;;;;;7.47;5.23;;;13.10;99.90;;;;;;5032186;28;20436;-63
2022/09/29 08:42:17;;;;;;;5.70;5.17;;;13.00;99.90;;;;;;5030895;28;20231;-64
2022/09/29 08:44:55;;;;;;;6.53;4.80;;;13.10;99.90;;;;;;5027994;28;20556;-64
2022/09/29 08:47:39;;;;;;;5.40;4.72;;;13.30;99.90;;;;;;5025654;28;20719;-64
2022/09/29 08:50:34;;;;;;;6.50;5.15;;;13.70;99.90;;;;;;5027211;28;20611;-65
2022/09/29 08:53:05;;;;;;;5.43;4.97;;;13.80;99.90;;;;;;5025317;28;20247;-66
2022/09/29 08:55:56;;;;;;;4.93;4.43;;;14.10;99.90;;;;;;5022274;28;20677;-67
2022/09/29 08:58:21;;;;;;;5.50;3.50;;;14.20;99.90;;;;;;5038946;28;20189;-66
2022/09/29 09:01:09;;;;;;;4.40;3.77;;;14.30;99.90;;;;;;5024329;28;20561;-65
2022/09/29 09:03:55;;;;;;;4.35;3.90;;;14.20;99.90;;;;;;5023367;28;20807;-65
2022/09/29 09:06:55;;;;;;;5.03;4.25;;;14.60;99.90;;;;;;5022647;28;20398;-71
2022/09/29 09:09:23;;;;;;;4.35;3.97;;;15.10;99.90;;;;;;5011646;28;20296;-65
2022/09/29 09:11:59;;;;;;;4.55;3.83;;;15.40;99.90;;;;;;5020750;28;20243;-71
2022/09/29 09:14:43;;;;;;;5.60;4.57;;;15.00;99.90;;;;;;5010073;28;20288;-70
2022/09/29 09:17:30;;;;;;;5.18;3.90;;;15.20;99.90;;;;;;5023473;28;20648;-69
2022/09/29 09:20:01;;;;;;;4.72;3.95;;;15.20;99.90;;;;;;5018127;28;20300;-68
2022/09/29 09:22:46;;;;;;;5.93;3.80;;;15.00;99.90;;;;;;5016658;28;20175;-68
2022/09/29 09:25:33;;;;;;;4.32;3.92;;;14.60;99.90;;;;;;5020494;28;20213;-69
2022/09/29 09:28:20;;;;;;;5.20;3.58;;;14.60;99.90;;;;;;5025570;28;20178;-71
2022/09/29 09:31:02;;;;;;;3.70;3.40;;;14.50;99.90;;;;;;5033293;28;20612;-69
2022/09/29 09:33:41;;;;;;;3.70;3.20;;;14.50;99.90;;;;;;5035998;28;20181;-62
2022/09/29 09:36:22;;;;;;;4.00;3.63;;;14.80;99.90;;;;;;5018853;28;20301;-65
2022/09/29 09:39:19;;;;;;;9.25;7.28;;;14.30;99.90;;;;;;5012895;28;20536;-62
2022/09/29 09:41:49;;;;;;;8.90;4.80;;;14.30;99.90;;;;;;5009869;28;20186;-64
2022/09/29 09:44:24;;;;;;;3.95;3.65;;;14.40;99.90;;;;;;5023311;28;20179;-61
2022/09/29 09:46:57;;;;;;;5.95;3.45;;;14.50;99.90;;;;;;5009667;28;20394;-63
2022/09/29 09:49:40;;;;;;;3.67;2.95;;;14.50;99.90;;;;;;5011330;28;20277;-61
2022/09/29 09:52:13;;;;;;;3.10;2.80;;;14.80;99.90;;;;;;5012733;28;20534;-61
2022/09/29 09:54:48;;;;;;;3.40;2.90;;;14.90;99.70;;;;;;5020582;28;21517;-64
2022/09/29 09:57:38;;;;;;;3.13;2.92;;;15.30;99.20;;;;;;5018011;28;20179;-70
2022/09/29 10:00:17;;;;;;;3.88;2.83;;;15.10;98.90;;;;;;5023826;28;20179;-63
2022/09/29 10:02:48;;;;;;;3.03;2.78;;;15.20;98.90;;;;;;5028434;28;20232;-71
2022/09/29 10:05:20;;;;;;;3.45;2.63;;;15.50;98.70;;;;;;5024501;28;20206;-70
2022/09/29 10:07:47;;;;;;;3.13;2.83;;;15.20;98.40;;;;;;5019093;28;20202;-65
2022/09/29 10:10:27;;;;;;;3.05;2.80;;;15.20;98.30;;;;;;5026670;28;20202;-70
2022/09/29 10:13:14;;;;;;;3.42;2.22;;;15.50;97.60;;;;;;5030619;28;20221;-63
2022/09/29 10:15:54;;;;;;;3.10;2.40;;;15.60;97.30;;;;;;5027917;28;20287;-63
2022/09/29 10:18:35;;;;;;;2.67;2.40;;;15.70;96.80;;;;;;5020831;28;20679;-63
2022/09/29 10:21:00;;;;;;;2.35;2.20;;;16.10;96.40;;;;;;5015011;28;20218;-63
2022/09/29 10:23:33;;;;;;;3.50;2.23;;;16.00;95.70;;;;;;5025261;28;20216;-66
2022/09/29 10:26:11;;;;;;;3.00;2.25;;;16.40;95.90;;;;;;5016483;28;20981;-66
2022/09/29 10:28:54;;;;;;;3.13;2.47;;;16.10;95.40;;;;;;5031935;28;20604;-63
2022/09/29 10:31:23;;;;;;;2.63;2.42;;;15.90;95.60;;;;;;5033438;28;20196;-65
2022/09/29 10:33:55;;;;;;;3.10;2.20;;;16.40;95.60;;;;;;5030553;28;20186;-63
2022/09/29 10:36:23;;;;;;;2.70;2.13;;;16.70;95.20;;;;;;5026769;28;20287;-64
2022/09/29 10:38:51;;;;;;;2.70;2.50;;;16.60;94.30;;;;;;5018997;28;20230;-65
2022/09/29 10:41:18;;;;;;;3.10;2.80;;;16.50;94.40;;;;;;5017859;28;20194;-65
2022/09/29 10:43:46;;;;;;;3.22;2.50;;;16.60;94.30;;;;;;5030533;28;20232;-64
2022/09/29 10:46:27;;;;;;;3.25;2.80;;;16.10;94.10;;;;;;5023408;28;20748;-67
2022/09/29 10:49:12;;;;;;;4.15;2.50;;;16.30;94.60;;;;;;5030157;28;20341;-63
2022/09/29 10:51:38;;;;;;;2.78;2.10;;;16.30;94.30;;;;;;5021912;28;20194;-62
2022/09/29 10:54:13;;;;;;;3.30;2.25;;;16.00;94.50;;;;;;5033705;28;20182;-64
2022/09/29 10:56:46;;;;;;;2.80;1.90;;;16.30;94.50;;;;;;5023109;28;20201;-63
2022/09/29 10:59:12;;;;;;;2.35;1.90;;;16.10;94.00;;;;;;5035911;28;20183;-64
2022/09/29 11:02:08;;;;;;;3.50;2.92;;;16.20;93.90;;;;;;5030324;28;20285;-64
2022/09/29 11:04:38;;;;;;;3.22;1.80;;;16.30;94.00;;;;;;5024394;28;20306;-67
2022/09/29 11:07:11;;;;;;;2.85;2.10;;;16.20;94.00;;;;;;5030081;28;20188;-66
2022/09/29 11:09:42;;;;;;;2.17;1.50;;;16.30;93.20;;;;;;5025759;28;20190;-66
2022/09/29 11:12:31;;;;;;;2.15;1.90;;;16.80;92.20;;;;;;5025486;28;21014;-72
2022/09/29 11:14:59;;;;;;;1.90;1.40;;;16.60;91.90;;;;;;5040355;28;20254;-72
2022/09/29 11:17:30;;;;;;;2.10;1.85;;;16.60;91.50;;;;;;5033529;28;20627;-72
2022/09/29 11:19:59;;;;;;;2.33;1.73;;;16.70;92.10;;;;;;5025836;28;20667;-70
2022/09/29 11:22:45;;;;;;;1.83;1.60;;;16.80;91.90;;;;;;5021694;28;20659;-73
2022/09/29 11:25:34;;;;;;;2.60;2.30;;;16.80;91.70;;;;;;5027558;28;20206;-65
2022/09/29 11:27:59;;;;;;;2.90;2.42;;;16.70;92.00;;;;;;5046730;28;20189;-64
2022/09/29 11:30:42;;;;;;;2.23;2.03;;;16.50;92.20;;;;;;5029931;28;20190;-65
2022/09/29 11:33:21;;;;;;;2.67;2.00;;;16.60;92.80;;;;;;5028765;28;20189;-62
2022/09/29 11:36:08;;;;;;;2.38;2.17;;;16.90;92.70;;;;;;5033800;28;20293;-62
2022/09/29 11:39:11;;;;;;;2.20;2.00;;;16.80;92.30;;;;;;5024482;28;20865;-63
2022/09/29 11:41:59;;;;;;;3.38;2.00;;;16.80;92.70;;;;;;5028688;28;20636;-61
2022/09/29 11:44:57;;;;;;;2.75;2.55;;;16.60;92.50;;;;;;5019708;28;20206;-62
2022/09/29 11:47:49;;;;;;;3.60;2.90;;;16.60;93.10;;;;;;5018563;28;20209;-65
2022/09/29 11:50:27;;;;;;;2.90;2.70;;;16.80;93.30;;;;;;5017008;28;20186;-65
2022/09/29 11:53:17;;;;;;;5.70;1.67;;;16.50;91.80;;;;;;5015545;28;20598;-67
2022/09/29 11:56:16;;;;;;;3.80;1.90;;;16.60;92.20;;;;;;5029758;28;20306;-66
2022/09/29 11:58:53;;;;;;;3.70;1.52;;;16.50;92.90;;;;;;5018232;28;20182;-65
2022/09/29 12:01:22;;;;;;;2.88;1.85;;;16.50;91.70;;;;;;5013806;28;20188;-64
2022/09/29 12:03:53;;;;;;;2.58;1.65;;;16.50;91.50;;;;;;5015965;28;20658;-69
2022/09/29 12:06:30;;;;;;;2.75;1.73;;;16.40;91.20;;;;;;5030528;28;20200;-68
2022/09/29 12:09:18;;;;;;;1.55;1.45;;;16.60;91.10;;;;;;5014391;28;20197;-69
2022/09/29 12:12:03;;;;;;;2.80;2.00;;;16.50;91.40;;;;;;5018068;28;20192;-67
2022/09/29 12:15:07;;;;;;;1.75;1.65;;;16.60;91.50;;;;;;5018882;28;20210;-63
2022/09/29 12:17:37;;;;;;;1.60;1.45;;;16.60;91.00;;;;;;5026089;28;20198;-63
2022/09/29 12:20:28;;;;;;;1.90;1.67;;;16.50;91.10;;;;;;5018498;28;20714;-65
2022/09/29 12:23:00;;;;;;;2.50;2.30;;;16.80;91.50;;;;;;5019126;28;20186;-63
2022/09/29 12:25:30;;;;;;;6.63;1.60;;;16.70;90.70;;;;;;5025461;28;20310;-67
2022/09/29 12:28:19;;;;;;;2.10;1.77;;;16.70;90.80;;;;;;5022091;28;20208;-67
2022/09/29 12:30:50;;;;;;;2.70;1.95;;;16.70;90.40;;;;;;5025361;28;20243;-70
2022/09/29 12:33:49;;;;;;;2.63;2.35;;;16.60;90.60;;;;;;5025430;28;20188;-70
2022/09/29 12:39:24;;;;;;;6.03;2.00;;;16.40;90.70;;;;;;5033271;28;20243;-61
2022/09/29 12:42:20;;;;;;;2.42;2.17;;;16.70;91.20;;;;;;5022389;28;20659;-61
2022/09/29 12:44:59;;;;;;;2.70;1.77;;;16.60;90.40;;;;;;5025017;28;20357;-62
2022/09/29 12:47:52;;;;;;;2.10;1.90;;;16.30;90.60;;;;;;5024664;28;20209;-65
2022/09/29 12:50:42;;;;;;;1.90;1.58;;;16.50;90.40;;;;;;5013606;28;20190;-66
2022/09/29 12:53:16;;;;;;;2.38;1.65;;;16.20;90.50;;;;;;5020832;28;20277;-65
2022/09/29 12:55:55;;;;;;;3.10;1.75;;;16.50;90.80;;;;;;5022247;28;20210;-64
2022/09/29 12:58:52;;;;;;;2.10;1.85;;;16.50;90.60;;;;;;5028886;28;20217;-62
2022/09/29 13:01:26;;;;;;;1.88;1.52;;;16.50;90.20;;;;;;5023625;28;20183;-62
2022/09/29 13:04:20;;;;;;;1.58;1.48;;;16.60;90.60;;;;;;5026340;28;20201;-62
2022/09/29 13:07:19;;;;;;;2.25;1.55;;;16.30;91.00;;;;;;5033265;28;20619;-66
2022/09/29 13:10:01;;;;;;;3.15;1.45;;;16.60;91.40;;;;;;5025449;28;20189;-65
2022/09/29 13:12:37;;;;;;;2.85;1.90;;;15.90;90.90;;;;;;5022969;28;20708;-65
2022/09/29 13:15:16;;;;;;;2.28;1.75;;;16.10;91.10;;;;;;5023968;28;20225;-66
2022/09/29 13:18:03;;;;;;;1.30;1.20;;;16.10;91.40;;;;;;5015590;28;20663;-65
2022/09/29 13:20:58;;;;;;;3.38;2.60;;;16.10;91.00;;;;;;5033100;28;20195;-65
2022/09/29 13:23:44;;;;;;;3.47;2.22;;;16.00;90.90;;;;;;5016087;28;20278;-67
2022/09/29 13:26:22;;;;;;;3.78;1.80;;;16.10;91.00;;;;;;5019285;28;20202;-74
2022/09/29 13:28:53;;;;;;;2.17;1.60;;;16.30;91.90;;;;;;5022764;28;20194;-67